Time;durP1;ratioP1;P1;durP2;ratioP2;P2;SDS_P1;SDS_P2;PMS_P1;PMS_P2;Temp;Humidity;BMP_temperature;BMP_pressure;BME280_temperature;BME280_humidity;BME280_pressure;Samples;Min_cycle;Max_cycle;Signal;HPM_P1;HPM_P2
2021/11/04 00:02:19;;;;;;;9.90;7.63;;;;;;;;;;5043930;28;20198;-76
2021/11/04 00:04:46;;;;;;;9.48;7.80;;;;;;;;;;5047435;28;20202;-77
2021/11/04 00:07:13;;;;;;;9.82;7.55;;;;;;;;;;5048296;28;20202;-76
2021/11/04 00:09:40;;;;;;;9.52;7.40;;;;;;;;;;5044970;28;20202;-76
2021/11/04 00:12:09;;;;;;;15.57;11.15;;;;;;;;;;5051876;28;20245;-77
2021/11/04 00:14:36;;;;;;;8.82;6.60;;;;;;;;;;5056040;28;20194;-77
2021/11/04 00:17:04;;;;;;;14.00;10.38;;;;;;;;;;5059628;28;20251;-77
2021/11/04 00:19:31;;;;;;;13.15;8.43;;;;;;;;;;5060203;28;20202;-77
2021/11/04 00:21:59;;;;;;;10.75;9.60;;;;;;;;;;5049872;28;20203;-77
2021/11/04 00:24:26;;;;;;;11.50;8.70;;;;;;;;;;5047137;28;20223;-77
2021/11/04 00:26:53;;;;;;;16.17;11.13;;;;;;;;;;5062752;28;20664;-77
2021/11/04 00:29:22;;;;;;;11.20;8.18;;;;;;;;;;5049006;28;20677;-77
2021/11/04 00:31:49;;;;;;;14.02;9.98;;;;;;;;;;5048727;28;20783;-77
2021/11/04 00:34:16;;;;;;;12.18;9.52;;;;;;;;;;5040179;28;20210;-77
2021/11/04 00:36:44;;;;;;;10.18;7.78;;;;;;;;;;5058710;28;20194;-76
2021/11/04 00:39:11;;;;;;;11.48;8.57;;;;;;;;;;5042712;28;20203;-77
2021/11/04 00:41:39;;;;;;;13.15;10.13;;;;;;;;;;5049479;28;20203;-77
2021/11/04 00:44:06;;;;;;;13.82;8.98;;;;;;;;;;5051127;28;20257;-78
2021/11/04 00:46:35;;;;;;;11.57;9.32;;;;;;;;;;5053284;28;20199;-77
2021/11/04 00:49:02;;;;;;;12.10;8.45;;;;;;;;;;5059272;28;20197;-77
2021/11/04 00:51:29;;;;;;;14.55;9.82;;;;;;;;;;5042682;28;20225;-77
2021/11/04 00:53:56;;;;;;;13.15;11.05;;;;;;;;;;5047458;28;21613;-78
2021/11/04 00:56:23;;;;;;;12.63;9.48;;;;;;;;;;5053270;28;20213;-78
2021/11/04 00:58:50;;;;;;;9.85;7.88;;;;;;;;;;5059565;28;20202;-78
2021/11/04 01:01:17;;;;;;;9.15;7.75;;;;;;;;;;5042522;28;20218;-77
2021/11/04 01:03:46;;;;;;;11.50;8.60;;;;;;;;;;5060785;28;20223;-77
2021/11/04 01:06:13;;;;;;;11.25;9.90;;;;;;;;;;5052127;28;20198;-77
2021/11/04 01:08:40;;;;;;;11.85;9.73;;;;;;;;;;5058341;28;20613;-77
2021/11/04 01:11:08;;;;;;;11.52;9.57;;;;;;;;;;5037062;28;20218;-77
2021/11/04 01:13:35;;;;;;;12.48;9.35;;;;;;;;;;5052203;28;20203;-78
2021/11/04 01:16:02;;;;;;;12.73;10.15;;;;;;;;;;5054376;28;20221;-76
2021/11/04 01:18:29;;;;;;;15.02;12.00;;;;;;;;;;5045709;28;20199;-77
2021/11/04 01:20:57;;;;;;;15.20;10.23;;;;;;;;;;5056666;28;20191;-78
2021/11/04 01:23:25;;;;;;;10.80;9.10;;;;;;;;;;5056727;28;20219;-77
2021/11/04 01:25:52;;;;;;;18.00;11.20;;;;;;;;;;5042730;28;20200;-75
2021/11/04 01:28:19;;;;;;;15.38;10.77;;;;;;;;;;5040897;28;20195;-77
2021/11/04 01:30:46;;;;;;;14.13;10.40;;;;;;;;;;5046154;28;20191;-76
2021/11/04 01:33:13;;;;;;;11.75;8.00;;;;;;;;;;5054891;28;20202;-76
2021/11/04 01:35:40;;;;;;;13.68;9.68;;;;;;;;;;5054007;28;20199;-77
2021/11/04 01:38:09;;;;;;;13.02;9.00;;;;;;;;;;5052134;28;20531;-77
2021/11/04 01:40:36;;;;;;;13.65;10.55;;;;;;;;;;5050104;28;20660;-77
2021/11/04 01:43:04;;;;;;;17.50;12.55;;;;;;;;;;5045122;28;20210;-76
2021/11/04 01:45:31;;;;;;;13.50;9.38;;;;;;;;;;5060586;28;20190;-77
2021/11/04 01:47:58;;;;;;;15.48;10.30;;;;;;;;;;5049858;28;20546;-76
2021/11/04 01:50:26;;;;;;;15.15;12.27;;;;;;;;;;5048376;28;20191;-76
2021/11/04 01:52:53;;;;;;;13.00;10.05;;;;;;;;;;5047037;28;20206;-77
2021/11/04 01:55:23;;;;;;;13.43;10.55;;;;;;;;;;5051309;28;20194;-78
2021/11/04 01:57:50;;;;;;;14.75;10.57;;;;;;;;;;5059675;28;20190;-76
2021/11/04 02:00:19;;;;;;;15.95;12.90;;;;;;;;;;5046506;28;20226;-76
2021/11/04 02:02:47;;;;;;;16.95;10.63;;;;;;;;;;5050249;28;20195;-78
2021/11/04 02:05:18;;;;;;;17.85;12.25;;;;;;;;;;5042641;28;20206;-77
2021/11/04 02:07:46;;;;;;;12.80;9.05;;;;;;;;;;5043879;28;20190;-78
2021/11/04 02:10:14;;;;;;;14.25;10.60;;;;;;;;;;5050559;28;20214;-78
2021/11/04 02:12:47;;;;;;;15.02;10.02;;;;;;;;;;5058732;28;20669;-78
2021/11/04 02:15:14;;;;;;;16.05;11.85;;;;;;;;;;5046679;28;20230;-77
2021/11/04 02:17:43;;;;;;;13.23;8.50;;;;;;;;;;5057158;28;20384;-77
2021/11/04 02:20:12;;;;;;;15.30;12.07;;;;;;;;;;5046395;28;20195;-78
2021/11/04 02:22:45;;;;;;;14.40;11.90;;;;;;;;;;5049356;28;20561;-78
2021/11/04 02:25:15;;;;;;;13.85;10.50;;;;;;;;;;5059036;28;20628;-78
2021/11/04 02:27:43;;;;;;;18.52;12.60;;;;;;;;;;5046416;28;20550;-77
2021/11/04 02:30:11;;;;;;;19.90;11.85;;;;;;;;;;5054912;28;20597;-77
2021/11/04 02:32:38;;;;;;;19.52;12.10;;;;;;;;;;5055490;28;20191;-77
2021/11/04 02:35:06;;;;;;;12.93;9.55;;;;;;;;;;5044302;28;20203;-77
2021/11/04 02:37:33;;;;;;;10.93;9.18;;;;;;;;;;5036034;28;20195;-77
2021/11/04 02:40:00;;;;;;;14.52;10.32;;;;;;;;;;5048758;28;20251;-77
2021/11/04 02:42:29;;;;;;;12.35;10.15;;;;;;;;;;5051242;28;20209;-76
2021/11/04 02:44:56;;;;;;;16.65;12.07;;;;;;;;;;5046470;28;20223;-77
2021/11/04 02:47:24;;;;;;;16.48;12.65;;;;;;;;;;5048424;28;20191;-78
2021/11/04 02:49:52;;;;;;;14.40;10.65;;;;;;;;;;5049521;28;20198;-78
2021/11/04 02:52:20;;;;;;;17.00;11.50;;;;;;;;;;5046294;28;20195;-78
2021/11/04 02:54:53;;;;;;;17.60;12.18;;;;;;;;;;5042354;28;20217;-78
2021/11/04 02:57:20;;;;;;;13.60;10.85;;;;;;;;;;5044179;28;20183;-78
2021/11/04 02:59:49;;;;;;;15.02;11.20;;;;;;;;;;5049131;28;20230;-78
2021/11/04 03:02:16;;;;;;;15.35;12.48;;;;;;;;;;5051776;28;20202;-78
2021/11/04 03:04:43;;;;;;;16.17;11.18;;;;;;;;;;5032138;28;20223;-78
2021/11/04 03:07:10;;;;;;;12.55;10.15;;;;;;;;;;5056523;28;20657;-79
2021/11/04 03:09:37;;;;;;;16.73;11.63;;;;;;;;;;5047550;28;20289;-80
2021/11/04 03:12:05;;;;;;;14.70;10.73;;;;;;;;;;5044781;28;20201;-80
2021/11/04 03:14:32;;;;;;;13.77;10.48;;;;;;;;;;5050640;28;20202;-80
2021/11/04 03:17:01;;;;;;;12.10;10.32;;;;;;;;;;5050904;28;20195;-78
2021/11/04 03:19:29;;;;;;;15.93;11.05;;;;;;;;;;5044688;28;20199;-79
2021/11/04 03:21:58;;;;;;;14.20;10.73;;;;;;;;;;5046965;28;20191;-80
2021/11/04 03:24:27;;;;;;;16.70;11.30;;;;;;;;;;5054233;28;20221;-77
2021/11/04 03:26:56;;;;;;;18.85;12.20;;;;;;;;;;5060448;28;20202;-78
2021/11/04 03:29:25;;;;;;;20.02;14.77;;;;;;;;;;5048646;28;20195;-79
2021/11/04 03:31:53;;;;;;;18.88;12.60;;;;;;;;;;5052475;28;20535;-78
2021/11/04 03:34:21;;;;;;;15.10;11.43;;;;;;;;;;5056672;28;20202;-78
2021/11/04 03:36:50;;;;;;;17.63;11.40;;;;;;;;;;5048314;28;20191;-79
2021/11/04 03:39:18;;;;;;;12.95;10.15;;;;;;;;;;5049563;28;20202;-80
2021/11/04 03:41:46;;;;;;;16.52;11.75;;;;;;;;;;5051668;28;20194;-80
2021/11/04 03:44:13;;;;;;;15.88;11.40;;;;;;;;;;5049928;28;20223;-78
2021/11/04 03:46:43;;;;;;;13.25;9.43;;;;;;;;;;5043483;28;20209;-80
2021/11/04 03:49:14;;;;;;;12.98;10.02;;;;;;;;;;5058215;28;20203;-77
2021/11/04 03:51:43;;;;;;;17.75;12.13;;;;;;;;;;5061031;28;20222;-77
2021/11/04 03:54:11;;;;;;;17.23;11.38;;;;;;;;;;5049368;28;20210;-79
2021/11/04 03:56:39;;;;;;;18.67;13.07;;;;;;;;;;5049583;28;20199;-77
2021/11/04 03:59:06;;;;;;;20.75;13.00;;;;;;;;;;5058096;28;20210;-77
2021/11/04 04:01:34;;;;;;;18.38;12.55;;;;;;;;;;5050624;28;20198;-77
2021/11/04 04:04:02;;;;;;;16.20;11.40;;;;;;;;;;5047304;28;20219;-80
2021/11/04 04:06:29;;;;;;;14.63;11.32;;;;;;;;;;5053199;28;20191;-79
2021/11/04 04:08:58;;;;;;;14.77;11.18;;;;;;;;;;5047919;28;20203;-79
2021/11/04 04:11:25;;;;;;;14.18;10.75;;;;;;;;;;5052041;28;20195;-80
2021/11/04 04:13:53;;;;;;;16.85;10.88;;;;;;;;;;5047054;28;20202;-80
2021/11/04 04:16:20;;;;;;;20.25;13.25;;;;;;;;;;5044232;28;20564;-80
2021/11/04 04:18:47;;;;;;;19.55;11.73;;;;;;;;;;5050693;28;20191;-81
2021/11/04 04:21:14;;;;;;;18.52;13.07;;;;;;;;;;5044783;28;20670;-81
2021/11/04 04:23:41;;;;;;;19.48;13.25;;;;;;;;;;5057199;28;20202;-81
2021/11/04 04:26:10;;;;;;;18.98;12.55;;;;;;;;;;5041279;28;20203;-81
2021/11/04 04:28:37;;;;;;;24.50;13.77;;;;;;;;;;5057937;28;20195;-81
2021/11/04 04:31:04;;;;;;;18.92;12.45;;;;;;;;;;5058044;28;20195;-81
2021/11/04 04:33:31;;;;;;;18.73;13.20;;;;;;;;;;5043227;28;20207;-81
2021/11/04 04:35:58;;;;;;;18.48;11.65;;;;;;;;;;5048645;28;20199;-81
2021/11/04 04:38:25;;;;;;;17.98;13.23;;;;;;;;;;5046182;28;20199;-80
2021/11/04 04:40:52;;;;;;;17.15;11.85;;;;;;;;;;5052265;28;20203;-79
2021/11/04 04:43:21;;;;;;;18.98;12.48;;;;;;;;;;5070481;28;20190;-79
2021/11/04 04:45:48;;;;;;;23.90;14.98;;;;;;;;;;5054641;28;20227;-78
2021/11/04 04:48:15;;;;;;;19.67;13.23;;;;;;;;;;5059475;28;20613;-78
2021/11/04 04:50:43;;;;;;;17.95;12.98;;;;;;;;;;5041342;28;20198;-79
2021/11/04 04:53:10;;;;;;;18.27;11.90;;;;;;;;;;5051680;28;20278;-76
2021/11/04 04:55:37;;;;;;;26.13;14.77;;;;;;;;;;5051596;28;20203;-78
2021/11/04 04:58:06;;;;;;;23.73;13.48;;;;;;;;;;5051654;28;20195;-80
2021/11/04 05:00:34;;;;;;;17.90;12.43;;;;;;;;;;5048942;28;20229;-77
2021/11/04 05:03:01;;;;;;;26.42;14.70;;;;;;;;;;5053813;28;20585;-77
2021/11/04 05:05:28;;;;;;;17.35;11.88;;;;;;;;;;5058705;28;20700;-76
2021/11/04 05:07:55;;;;;;;18.50;12.55;;;;;;;;;;5054168;28;20191;-78
2021/11/04 05:10:22;;;;;;;20.00;13.35;;;;;;;;;;5049751;28;20203;-78
2021/11/04 05:12:50;;;;;;;18.00;13.23;;;;;;;;;;5053606;28;20202;-79
2021/11/04 05:15:17;;;;;;;19.10;12.95;;;;;;;;;;5051399;28;20195;-78
2021/11/04 05:17:46;;;;;;;19.17;11.90;;;;;;;;;;5052614;28;20602;-79
2021/11/04 05:20:13;;;;;;;22.42;14.60;;;;;;;;;;5047467;28;20206;-79
2021/11/04 05:22:40;;;;;;;18.33;11.25;;;;;;;;;;5050821;28;20633;-79
2021/11/04 05:25:07;;;;;;;19.48;13.30;;;;;;;;;;5055926;28;20215;-79
2021/11/04 05:27:34;;;;;;;19.23;12.27;;;;;;;;;;5056077;28;20692;-79
2021/11/04 05:30:01;;;;;;;20.67;12.38;;;;;;;;;;5040171;28;20641;-80
2021/11/04 05:32:28;;;;;;;18.33;12.30;;;;;;;;;;5049474;28;20199;-79
2021/11/04 05:34:57;;;;;;;20.15;13.45;;;;;;;;;;5054146;28;20205;-79
2021/11/04 05:37:24;;;;;;;16.65;12.05;;;;;;;;;;5049715;28;20187;-79
2021/11/04 05:39:51;;;;;;;17.85;11.98;;;;;;;;;;5048995;28;20202;-78
2021/11/04 05:42:18;;;;;;;22.45;12.98;;;;;;;;;;5053763;28;20187;-79
2021/11/04 05:44:45;;;;;;;21.80;12.98;;;;;;;;;;5058698;28;20221;-79
2021/11/04 05:47:12;;;;;;;15.73;10.60;;;;;;;;;;5064123;28;20196;-78
2021/11/04 05:49:39;;;;;;;18.33;12.45;;;;;;;;;;5057561;28;20399;-79
2021/11/04 05:52:07;;;;;;;19.63;12.40;;;;;;;;;;5051015;28;20201;-79
2021/11/04 05:54:35;;;;;;;19.00;11.43;;;;;;;;;;5052296;28;20206;-79
2021/11/04 05:57:02;;;;;;;20.27;13.50;;;;;;;;;;5047159;28;20733;-78
2021/11/04 05:59:29;;;;;;;20.35;13.57;;;;;;;;;;5051639;28;20237;-79
2021/11/04 06:01:56;;;;;;;19.50;13.55;;;;;;;;;;5051195;28;20199;-78
2021/11/04 06:04:23;;;;;;;20.92;13.63;;;;;;;;;;5051613;28;20221;-78
2021/11/04 06:06:51;;;;;;;21.73;13.70;;;;;;;;;;5063491;28;20205;-77
2021/11/04 06:09:19;;;;;;;20.88;13.60;;;;;;;;;;5057489;28;20187;-78
2021/11/04 06:11:46;;;;;;;26.65;15.70;;;;;;;;;;5052092;28;20644;-78
2021/11/04 06:14:13;;;;;;;16.05;11.60;;;;;;;;;;5037243;28;20222;-77
2021/11/04 06:16:40;;;;;;;20.27;11.95;;;;;;;;;;5045831;28;20200;-78
2021/11/04 06:19:07;;;;;;;21.40;14.80;;;;;;;;;;5053233;28;20195;-77
2021/11/04 06:21:34;;;;;;;19.65;12.93;;;;;;;;;;5046650;28;20202;-77
2021/11/04 06:24:01;;;;;;;21.90;14.02;;;;;;;;;;5054133;28;20191;-78
2021/11/04 06:26:30;;;;;;;22.00;13.43;;;;;;;;;;5049170;28;20195;-77
2021/11/04 06:28:57;;;;;;;16.60;9.73;;;;;;;;;;5044327;28;20199;-77
2021/11/04 06:31:24;;;;;;;23.70;14.07;;;;;;;;;;5045209;28;20225;-77
2021/11/04 06:33:51;;;;;;;21.63;14.13;;;;;;;;;;5059755;28;20202;-78
2021/11/04 06:36:18;;;;;;;15.48;12.20;;;;;;;;;;5060316;28;20688;-78
2021/11/04 06:38:45;;;;;;;21.95;12.57;;;;;;;;;;5049531;28;20202;-78
2021/11/04 06:41:12;;;;;;;19.40;12.60;;;;;;;;;;5051005;28;20196;-78
2021/11/04 06:43:43;;;;;;;15.55;10.65;;;;;;;;;;5048393;28;20653;-78
2021/11/04 06:46:11;;;;;;;22.90;11.68;;;;;;;;;;5051730;28;20296;-79
2021/11/04 06:48:42;;;;;;;26.83;13.90;;;;;;;;;;5044077;28;20607;-78
2021/11/04 06:51:09;;;;;;;20.63;13.68;;;;;;;;;;5051561;28;20261;-79
2021/11/04 06:53:37;;;;;;;19.27;10.70;;;;;;;;;;5056991;28;20194;-79
2021/11/04 06:56:05;;;;;;;18.83;12.90;;;;;;;;;;5047913;28;20191;-80
2021/11/04 06:58:32;;;;;;;16.48;11.40;;;;;;;;;;5057015;28;20248;-79
2021/11/04 07:01:01;;;;;;;22.33;12.98;;;;;;;;;;5053517;28;20719;-79
2021/11/04 07:03:30;;;;;;;21.02;12.95;;;;;;;;;;5045163;28;20191;-80
2021/11/04 07:05:59;;;;;;;19.00;13.10;;;;;;;;;;5049133;28;20234;-76
2021/11/04 07:08:28;;;;;;;24.60;14.10;;;;;;;;;;5062983;28;20191;-79
2021/11/04 07:10:59;;;;;;;19.77;12.07;;;;;;;;;;5047167;28;20213;-78
2021/11/04 07:13:26;;;;;;;16.92;11.55;;;;;;;;;;5046709;28;20190;-80
2021/11/04 07:15:55;;;;;;;16.90;12.10;;;;;;;;;;5050727;28;20195;-85
2021/11/04 07:18:24;;;;;;;18.25;11.63;;;;;;;;;;5045190;28;20214;-87
2021/11/04 07:20:54;;;;;;;24.05;12.38;;;;;;;;;;5049459;28;20198;-83
2021/11/04 07:23:26;;;;;;;21.58;13.73;;;;;;;;;;5049151;28;20286;-86
2021/11/04 07:25:54;;;;;;;17.58;11.20;;;;;;;;;;5039297;28;20222;-85
2021/11/04 07:28:23;;;;;;;23.83;13.27;;;;;;;;;;5050787;28;20198;-87
2021/11/04 07:30:55;;;;;;;22.55;11.68;;;;;;;;;;5054069;28;20209;-82
2021/11/04 07:33:25;;;;;;;18.02;10.85;;;;;;;;;;5035568;28;20255;-85
2021/11/04 07:35:52;;;;;;;26.48;15.88;;;;;;;;;;5053113;28;20194;-86
2021/11/04 07:38:20;;;;;;;18.88;12.20;;;;;;;;;;5038541;28;20191;-86
2021/11/04 07:40:47;;;;;;;21.25;13.60;;;;;;;;;;5031805;28;20203;-83
2021/11/04 07:43:14;;;;;;;20.80;12.13;;;;;;;;;;5038391;28;20188;-83
2021/11/04 07:45:41;;;;;;;18.17;11.40;;;;;;;;;;5048882;28;20570;-86
2021/11/04 07:48:08;;;;;;;14.65;10.85;;;;;;;;;;5048282;28;20198;-84
2021/11/04 07:50:37;;;;;;;18.63;11.50;;;;;;;;;;5042453;28;20199;-82
2021/11/04 07:53:04;;;;;;;20.90;12.13;;;;;;;;;;5048501;28;20195;-81
2021/11/04 07:55:31;;;;;;;16.63;9.82;;;;;;;;;;5048098;28;20202;-84
2021/11/04 07:57:58;;;;;;;19.85;11.75;;;;;;;;;;5046498;28;20207;-86
2021/11/04 08:00:29;;;;;;;17.55;11.68;;;;;;;;;;5055847;28;20222;-86
2021/11/04 08:02:56;;;;;;;20.27;11.05;;;;;;;;;;5048450;28;20203;-83
2021/11/04 08:05:24;;;;;;;15.93;11.25;;;;;;;;;;5048465;28;20215;-87
2021/11/04 08:07:52;;;;;;;19.50;11.40;;;;;;;;;;5051813;28;20265;-86
2021/11/04 08:10:20;;;;;;;18.40;11.52;;;;;;;;;;5047130;28;20194;-84
2021/11/04 08:12:47;;;;;;;16.17;11.18;;;;;;;;;;5049239;28;20195;-85
2021/11/04 08:15:14;;;;;;;18.08;10.95;;;;;;;;;;5049761;28;20202;-84
2021/11/04 08:17:42;;;;;;;15.07;10.50;;;;;;;;;;5055895;28;20186;-84
2021/11/04 08:20:10;;;;;;;18.80;10.55;;;;;;;;;;5046381;28;20190;-88
2021/11/04 08:22:37;;;;;;;15.70;10.57;;;;;;;;;;5054041;28;20205;-85
2021/11/04 08:25:07;;;;;;;15.80;11.00;;;;;;;;;;5053376;28;20219;-86
2021/11/04 08:27:34;;;;;;;15.45;10.35;;;;;;;;;;5040135;28;20568;-82
2021/11/04 08:30:01;;;;;;;15.85;10.00;;;;;;;;;;5049102;28;20281;-81
2021/11/04 08:32:28;;;;;;;16.52;9.75;;;;;;;;;;5055174;28;20198;-81
2021/11/04 08:34:56;;;;;;;11.50;8.82;;;;;;;;;;5039318;28;20204;-81
2021/11/04 08:37:23;;;;;;;15.73;9.52;;;;;;;;;;5036762;28;20213;-86
2021/11/04 08:39:50;;;;;;;13.52;10.45;;;;;;;;;;5060626;28;20236;-86
2021/11/04 08:42:18;;;;;;;14.23;10.27;;;;;;;;;;5059426;28;20183;-85
2021/11/04 08:44:45;;;;;;;13.10;9.23;;;;;;;;;;5055000;28;20199;-86
2021/11/04 08:47:12;;;;;;;15.43;9.43;;;;;;;;;;5045107;28;20219;-85
2021/11/04 08:49:39;;;;;;;15.88;10.30;;;;;;;;;;5038835;28;20200;-87
2021/11/04 08:52:08;;;;;;;17.50;10.82;;;;;;;;;;5055356;28;20198;-80
2021/11/04 08:54:35;;;;;;;14.23;10.15;;;;;;;;;;5054855;28;20542;-84
2021/11/04 08:57:02;;;;;;;13.57;9.52;;;;;;;;;;5045079;28;20692;-82
2021/11/04 08:59:31;;;;;;;15.57;9.05;;;;;;;;;;5051701;28;20568;-84
2021/11/04 09:01:58;;;;;;;13.95;9.05;;;;;;;;;;5055298;28;20225;-83
2021/11/04 09:04:25;;;;;;;13.82;9.15;;;;;;;;;;5042450;28;20672;-86
2021/11/04 09:06:53;;;;;;;14.70;9.68;;;;;;;;;;5054953;28;20223;-81
2021/11/04 09:09:21;;;;;;;15.48;10.27;;;;;;;;;;5033728;28;20698;-81
2021/11/04 09:11:48;;;;;;;16.33;9.38;;;;;;;;;;5035188;28;20622;-87
2021/11/04 09:14:15;;;;;;;13.70;8.73;;;;;;;;;;5050724;28;20195;-83
2021/11/04 09:16:43;;;;;;;14.25;9.48;;;;;;;;;;5051684;28;20199;-85
2021/11/04 09:19:10;;;;;;;14.70;9.73;;;;;;;;;;5053196;28;20672;-82
2021/11/04 09:21:37;;;;;;;11.18;8.90;;;;;;;;;;5047262;28;20195;-81
2021/11/04 09:24:04;;;;;;;13.40;8.93;;;;;;;;;;5053513;28;20194;-83
2021/11/04 09:26:32;;;;;;;13.45;8.85;;;;;;;;;;5050876;28;20230;-82
2021/11/04 09:28:59;;;;;;;11.93;7.70;;;;;;;;;;5046659;28;20187;-81
2021/11/04 09:31:26;;;;;;;15.40;11.00;;;;;;;;;;5054682;28;20232;-84
2021/11/04 09:33:57;;;;;;;12.98;8.05;;;;;;;;;;5051564;28;20650;-83
2021/11/04 09:36:25;;;;;;;12.27;8.18;;;;;;;;;;5051576;28;20191;-84
2021/11/04 09:38:53;;;;;;;12.13;7.45;;;;;;;;;;5054562;28;20197;-85
2021/11/04 09:41:20;;;;;;;11.38;7.95;;;;;;;;;;5047481;28;20218;-84
2021/11/04 09:43:48;;;;;;;12.10;8.38;;;;;;;;;;5038159;28;20191;-84
2021/11/04 09:46:15;;;;;;;13.77;9.68;;;;;;;;;;5051387;28;20210;-83
2021/11/04 09:48:42;;;;;;;12.82;8.90;;;;;;;;;;5052931;28;20198;-85
2021/11/04 09:51:11;;;;;;;11.45;8.13;;;;;;;;;;5043225;28;20203;-84
2021/11/04 09:53:38;;;;;;;13.23;8.43;;;;;;;;;;5052669;28;20194;-87
2021/11/04 09:56:05;;;;;;;10.00;7.45;;;;;;;;;;5047469;28;20198;-83
2021/11/04 09:58:33;;;;;;;11.57;7.72;;;;;;;;;;5050255;28;20684;-83
2021/11/04 10:01:15;;;;;;;11.25;8.18;;;;;;;;;;5048990;28;20223;-86
2021/11/04 10:03:42;;;;;;;12.25;7.20;;;;;;;;;;5034475;28;20196;-85
2021/11/04 10:06:17;;;;;;;12.40;8.43;;;;;;;;;;5049212;28;20215;-84
2021/11/04 10:08:44;;;;;;;9.05;7.07;;;;;;;;;;5043321;28;20210;-86
2021/11/04 10:11:13;;;;;;;11.07;7.28;;;;;;;;;;5051992;28;20202;-86
2021/11/04 10:13:40;;;;;;;9.95;6.55;;;;;;;;;;5047939;28;20203;-86
2021/11/04 10:16:07;;;;;;;12.75;8.65;;;;;;;;;;5047149;28;20207;-85
2021/11/04 10:18:39;;;;;;;10.70;8.18;;;;;;;;;;5045857;28;20199;-85
2021/11/04 10:21:06;;;;;;;12.27;7.60;;;;;;;;;;5046688;28;20191;-86
2021/11/04 10:23:38;;;;;;;10.77;7.35;;;;;;;;;;5052087;28;20202;-84
2021/11/04 10:26:06;;;;;;;10.82;9.13;;;;;;;;;;5046781;28;20444;-85
2021/11/04 10:28:33;;;;;;;15.70;8.15;;;;;;;;;;5050571;28;20289;-81
2021/11/04 10:31:01;;;;;;;10.43;7.00;;;;;;;;;;5048572;28;20573;-85
2021/11/04 10:33:29;;;;;;;11.98;7.60;;;;;;;;;;5044671;28;20195;-84
2021/11/04 10:35:57;;;;;;;14.57;8.38;;;;;;;;;;5050317;28;20226;-85
2021/11/04 10:38:29;;;;;;;12.13;8.40;;;;;;;;;;5048579;28;20195;-85
2021/11/04 10:40:58;;;;;;;13.38;8.93;;;;;;;;;;5048885;28;20245;-82
2021/11/04 10:43:25;;;;;;;13.43;8.95;;;;;;;;;;5053204;28;20202;-85
2021/11/04 10:45:59;;;;;;;14.90;9.80;;;;;;;;;;5051408;28;20222;-85
2021/11/04 10:48:27;;;;;;;15.73;9.73;;;;;;;;;;5049798;28;20195;-84
2021/11/04 10:50:54;;;;;;;10.60;7.32;;;;;;;;;;5044422;28;20202;-85
2021/11/04 10:53:22;;;;;;;11.25;8.55;;;;;;;;;;5052316;28;20198;-84
2021/11/04 10:55:51;;;;;;;12.27;8.65;;;;;;;;;;5050147;28;20199;-85
2021/11/04 10:58:30;;;;;;;12.70;8.93;;;;;;;;;;5044820;28;20215;-82
2021/11/04 11:00:57;;;;;;;14.70;10.48;;;;;;;;;;5055911;28;20649;-82
2021/11/04 11:03:24;;;;;;;11.75;9.10;;;;;;;;;;5046004;28;20197;-83
2021/11/04 11:05:55;;;;;;;12.40;9.10;;;;;;;;;;5047362;28;20669;-82
2021/11/04 11:08:23;;;;;;;16.27;9.07;;;;;;;;;;5039375;28;20242;-83
2021/11/04 11:10:50;;;;;;;15.80;10.20;;;;;;;;;;5040759;28;20616;-83
2021/11/04 11:13:17;;;;;;;11.40;8.90;;;;;;;;;;5054209;28;20190;-83
2021/11/04 11:15:50;;;;;;;12.45;8.00;;;;;;;;;;5046895;28;20565;-79
2021/11/04 11:18:19;;;;;;;12.52;8.38;;;;;;;;;;5040295;28;20201;-80
2021/11/04 11:20:47;;;;;;;10.50;8.05;;;;;;;;;;5045385;28;20421;-78
2021/11/04 11:23:14;;;;;;;10.30;7.45;;;;;;;;;;5043061;28;20199;-82
2021/11/04 11:25:42;;;;;;;13.43;8.90;;;;;;;;;;5037438;28;20207;-79
2021/11/04 11:28:09;;;;;;;15.93;9.35;;;;;;;;;;5047267;28;20691;-79
2021/11/04 11:30:36;;;;;;;15.48;9.57;;;;;;;;;;5049128;28;20199;-80
2021/11/04 11:33:27;;;;;;;10.93;7.60;;;;;;;;;;5049631;28;20659;-78
2021/11/04 11:36:11;;;;;;;12.43;9.70;;;;;;;;;;5032521;28;20668;-80
2021/11/04 11:38:57;;;;;;;15.95;10.30;;;;;;;;;;5051526;28;20205;-79
2021/11/04 11:41:24;;;;;;;13.00;8.23;;;;;;;;;;5039009;28;20202;-80
2021/11/04 11:43:52;;;;;;;15.25;9.80;;;;;;;;;;5046191;28;20198;-80
2021/11/04 11:46:19;;;;;;;16.42;9.35;;;;;;;;;;5049767;28;20211;-81
2021/11/04 11:49:06;;;;;;;15.90;9.23;;;;;;;;;;5048306;28;20195;-81
2021/11/04 11:51:41;;;;;;;13.55;10.15;;;;;;;;;;5043711;28;20199;-81
2021/11/04 11:54:08;;;;;;;14.45;9.80;;;;;;;;;;5043245;28;20199;-80
2021/11/04 11:56:35;;;;;;;12.98;8.52;;;;;;;;;;5047851;28;20202;-78
2021/11/04 11:59:17;;;;;;;11.75;8.80;;;;;;;;;;5050920;28;20673;-80
2021/11/04 12:01:47;;;;;;;12.30;8.55;;;;;;;;;;5043043;28;20539;-80
2021/11/04 12:04:23;;;;;;;9.05;8.15;;;;;;;;;;5047063;28;20198;-80
2021/11/04 12:06:53;;;;;;;10.23;7.78;;;;;;;;;;5051826;28;20331;-81
2021/11/04 12:09:32;;;;;;;11.25;7.75;;;;;;;;;;5048852;28;20190;-80
2021/11/04 12:11:59;;;;;;;15.93;9.70;;;;;;;;;;5042759;28;20198;-80
2021/11/04 12:14:30;;;;;;;10.45;8.30;;;;;;;;;;5046505;28;20588;-79
2021/11/04 12:17:11;;;;;;;14.23;9.25;;;;;;;;;;5047710;28;20203;-78
2021/11/04 12:19:38;;;;;;;12.77;8.82;;;;;;;;;;5047462;28;20195;-79
2021/11/04 12:22:08;;;;;;;8.98;7.35;;;;;;;;;;5046867;28;20213;-80
2021/11/04 12:24:35;;;;;;;10.57;7.03;;;;;;;;;;5047863;28;20199;-80
2021/11/04 12:27:09;;;;;;;12.73;10.48;;;;;;;;;;5038814;28;20214;-79
2021/11/04 12:29:37;;;;;;;9.45;6.82;;;;;;;;;;5046522;28;20203;-80
2021/11/04 12:32:09;;;;;;;10.23;7.07;;;;;;;;;;5044898;28;20616;-80
2021/11/04 12:34:36;;;;;;;12.80;7.32;;;;;;;;;;5037541;28;20194;-79
2021/11/04 12:37:09;;;;;;;12.60;8.60;;;;;;;;;;5044590;28;20554;-80
2021/11/04 12:39:36;;;;;;;11.65;8.77;;;;;;;;;;5048858;28;20252;-80
2021/11/04 12:42:03;;;;;;;12.68;8.30;;;;;;;;;;5044840;28;20290;-79
2021/11/04 12:44:31;;;;;;;10.25;8.38;;;;;;;;;;5045984;28;20206;-79
2021/11/04 12:46:58;;;;;;;10.65;6.60;;;;;;;;;;5037985;28;20219;-80
2021/11/04 12:49:27;;;;;;;11.98;8.25;;;;;;;;;;5046908;28;20191;-79
2021/11/04 12:51:55;;;;;;;9.00;7.40;;;;;;;;;;5042515;28;20203;-79
2021/11/04 12:54:25;;;;;;;11.38;7.35;;;;;;;;;;5050263;28;20195;-80
2021/11/04 12:56:54;;;;;;;9.85;7.60;;;;;;;;;;5042794;28;20203;-79
2021/11/04 12:59:32;;;;;;;11.77;7.70;;;;;;;;;;5059881;28;20237;-78
2021/11/04 13:02:00;;;;;;;8.75;6.45;;;;;;;;;;5058920;28;20202;-79
2021/11/04 13:04:28;;;;;;;10.32;7.55;;;;;;;;;;5042582;28;20210;-79
2021/11/04 13:06:55;;;;;;;8.32;7.38;;;;;;;;;;5045630;28;20227;-80
2021/11/04 13:09:24;;;;;;;9.88;6.80;;;;;;;;;;5046425;28;20191;-81
2021/11/04 13:12:12;;;;;;;9.18;7.10;;;;;;;;;;5047891;28;20221;-83
2021/11/04 13:14:56;;;;;;;7.03;5.57;;;;;;;;;;5046265;28;20191;-80
2021/11/04 13:17:24;;;;;;;8.10;7.05;;;;;;;;;;5062821;28;20691;-78
2021/11/04 13:19:59;;;;;;;9.75;6.93;;;;;;;;;;5037434;28;20200;-77
2021/11/04 13:22:26;;;;;;;9.18;6.45;;;;;;;;;;5049743;28;20194;-80
2021/11/04 13:24:56;;;;;;;7.07;5.55;;;;;;;;;;5052138;28;20566;-77
2021/11/04 13:27:23;;;;;;;6.88;5.55;;;;;;;;;;5041150;28;20222;-78
2021/11/04 13:29:51;;;;;;;9.23;7.15;;;;;;;;;;5045330;28;20187;-78
2021/11/04 13:32:18;;;;;;;8.27;6.45;;;;;;;;;;5053953;28;20206;-79
2021/11/04 13:34:46;;;;;;;10.45;6.35;;;;;;;;;;5041044;28;20195;-78
2021/11/04 13:37:14;;;;;;;8.20;5.65;;;;;;;;;;5033251;28;20226;-79
2021/11/04 13:39:41;;;;;;;8.65;5.85;;;;;;;;;;5041545;28;20206;-81
2021/11/04 13:42:20;;;;;;;8.30;6.07;;;;;;;;;;5048716;28;20194;-79
2021/11/04 13:44:47;;;;;;;7.95;5.50;;;;;;;;;;5046988;28;20229;-79
2021/11/04 13:47:14;;;;;;;12.57;9.43;;;;;;;;;;5047311;28;20218;-79
2021/11/04 13:49:50;;;;;;;14.48;9.07;;;;;;;;;;5047797;28;20539;-79
2021/11/04 13:52:24;;;;;;;15.55;8.85;;;;;;;;;;5052488;28;20475;-81
2021/11/04 13:54:51;;;;;;;9.43;7.50;;;;;;;;;;5052925;28;20190;-80
2021/11/04 13:57:19;;;;;;;13.13;7.43;;;;;;;;;;5049544;28;20199;-80
2021/11/04 13:59:51;;;;;;;10.13;7.22;;;;;;;;;;5050299;28;20539;-80
2021/11/04 14:02:20;;;;;;;7.65;6.78;;;;;;;;;;5046731;28;20599;-79
2021/11/04 14:04:51;;;;;;;9.23;6.57;;;;;;;;;;5056666;28;20198;-81
2021/11/04 14:07:28;;;;;;;10.05;6.78;;;;;;;;;;5050128;28;20221;-79
2021/11/04 14:09:56;;;;;;;13.23;6.07;;;;;;;;;;5048023;28;20203;-80
2021/11/04 14:12:28;;;;;;;7.93;6.10;;;;;;;;;;5050585;28;20202;-79
2021/11/04 14:14:56;;;;;;;8.07;5.25;;;;;;;;;;5044110;28;20192;-80
2021/11/04 14:17:26;;;;;;;7.78;5.65;;;;;;;;;;5046441;28;20247;-80
2021/11/04 14:19:54;;;;;;;8.52;5.55;;;;;;;;;;5050484;28;20195;-80
2021/11/04 14:22:22;;;;;;;6.97;4.78;;;;;;;;;;5052501;28;20570;-79
2021/11/04 14:24:49;;;;;;;6.55;5.07;;;;;;;;;;5045590;28;20562;-79
2021/11/04 14:27:17;;;;;;;7.38;5.55;;;;;;;;;;5033320;28;20215;-80
2021/11/04 14:29:46;;;;;;;7.13;4.97;;;;;;;;;;5032041;28;20231;-81
2021/11/04 14:32:15;;;;;;;7.82;5.38;;;;;;;;;;5041560;28;20685;-80
2021/11/04 14:34:42;;;;;;;8.02;5.80;;;;;;;;;;5044762;28;20221;-79